MET'MAP v2.0
soon released !

Expected late october,
this new version will be
more efficient, smarter,
and hosted on a brand new
server x3 powerfull...
...and still free !


Not compatible ?
Try the mobile version !

LOG IN : | Subscribe | Disclaimer | Who is Orbifly ? |
ICAO code :

TAF - LFDH Auch Lamothe - 14 Jul 2020 18:22 UTC
Data Sources :     NOAA   


- Airport Elevation : 411 ft
- No reported NOTAMs.


LFDH - Auch Lamothe

Latest METAR recorded : 0000/00/00 L :14 TAF LELL 141400Z 1415/1515 18010KT 9999 FEW030 TX30/1512Z TN19/1506Z TEMPO 1417/1422 3000 TSRA FEW030CB BKN040 BECMG 1418/1420 VRB05KT
NO TAF


MET'MAP, your aeronautical weather chart ! - Copyright ORBIFLY December 2007

Programming & Development : Alexandra Zaïnal
Co-Developer : Marc-Olivier Méhu
Technical & hardware support : Manuel Goepfert
Concept & Financing : Baudouin d'Aumeries